MMTJ/TIJ METAR and TAF weather

Enter ICAO airport designator
Station Type Date Time Source
MMTJ METAR 2019/12/13 02:43 UTC NOAA

MMTJ 130243Z 00000KT 6SM SKC 14/13 A3019 RMK SLP229 54000 954 HZY


Station Type Date Time Source
MMTJ Decoded METAR 2019/12/13 02:43 UTC NOAA

Tijuana International Airport , Mexico (MMTJ) 32-33N 116-58W
Dec 12, 2019 - 09:43 PM EST / 2019.12.13 0243 UTC
Wind: Calm:0
Visibility: 6 mile(s):0
Sky conditions: clear
Temperature: 57 F (14 C)
Dew Point: 55 F (13 C)
Relative Humidity: 93%
Pressure (altimeter): 30.19 in. Hg (1022 hPa)
Pressure tendency: the same as three hours ago
ob: MMTJ 130243Z 00000KT 6SM SKC 14/13 A3019 RMK SLP229 54000 954 HZY
cycle: 2

Station Type Date Time Source
MMTJ TAF 2019/12/12 18:48 UTC NOAA

TAF MMTJ 121641Z 1218/1324 12005KT P6SM SCT250 TX18/1221Z TN08/1312Z
FM130300 00000KT P6SM SKC
FM131200 00000KT 3SM BR SCT010
FM131600 24010KT P6SM BKN200

Example: see airport list